createdAt,value
2023-08-15T00:03:38.143Z,99366.38
2023-08-15T00:07:39.688Z,99373.13
2023-08-15T00:11:41.202Z,99376.31
2023-08-15T00:15:43.004Z,99371.22
2023-08-15T00:19:45.884Z,99372.69
2023-08-15T00:23:47.473Z,99362.00
2023-08-15T00:27:49.008Z,99378.94
2023-08-15T00:31:50.642Z,99372.13
2023-08-15T00:35:53.589Z,99368.44
2023-08-15T00:39:55.288Z,99374.22
2023-08-15T00:43:56.956Z,99372.13
2023-08-15T00:47:58.722Z,99376.25
2023-08-15T00:52:02.309Z,99364.72
2023-08-15T00:56:04.425Z,99361.94
2023-08-15T01:00:07.462Z,99355.84
2023-08-15T01:04:09.497Z,99352.88
2023-08-15T01:08:12.376Z,99345.66
2023-08-15T01:12:25.454Z,99334.81
2023-08-15T01:16:32.584Z,99351.66
2023-08-15T01:20:36.788Z,99344.16
2023-08-15T01:24:39.897Z,99342.19
2023-08-15T01:28:41.587Z,99337.84
2023-08-15T01:32:49.776Z,99331.28
2023-08-15T01:36:55.097Z,99326.56
2023-08-15T01:41:02.234Z,99325.13
2023-08-15T01:45:04.582Z,99330.66
2023-08-15T01:49:06.195Z,99327.81
2023-08-15T01:53:07.790Z,99322.25
2023-08-15T01:57:10.699Z,99326.75
2023-08-15T02:01:12.270Z,99309.69
2023-08-15T02:05:13.942Z,99306.22
2023-08-15T02:09:15.523Z,99305.31
2023-08-15T02:13:18.910Z,99297.41
2023-08-15T02:17:20.599Z,99307.69
2023-08-15T02:21:22.400Z,99304.28
2023-08-15T02:25:23.991Z,99305.63
2023-08-15T02:29:26.888Z,99297.59
2023-08-15T02:33:28.442Z,99285.50
2023-08-15T02:37:29.978Z,99286.09
2023-08-15T02:41:31.527Z,99272.13
2023-08-15T02:45:34.427Z,99270.91
2023-08-15T02:49:35.970Z,99270.00
2023-08-15T02:53:37.529Z,99265.00
2023-08-15T02:57:39.090Z,99263.09
2023-08-15T03:01:41.978Z,99259.50
2023-08-15T03:05:43.528Z,99263.09
2023-08-15T03:09:45.088Z,99261.91
2023-08-15T03:13:46.625Z,99253.63
2023-08-15T03:17:49.562Z,99255.06
2023-08-15T03:21:51.243Z,99248.72
2023-08-15T03:25:56.868Z,99248.38
2023-08-15T03:29:58.484Z,99244.59
2023-08-15T03:34:01.406Z,99244.38
2023-08-15T03:38:03.014Z,99240.06
2023-08-15T03:42:05.264Z,99231.63
2023-08-15T03:46:07.220Z,99236.16
2023-08-15T03:50:10.372Z,99229.97
2023-08-15T03:54:11.932Z,99226.66
2023-08-15T03:58:13.478Z,99221.50
2023-08-15T04:02:15.043Z,99222.00
2023-08-15T04:06:17.924Z,99220.88
2023-08-15T04:10:19.555Z,99228.91
2023-08-15T04:14:21.125Z,99232.41
2023-08-15T04:18:22.664Z,99232.22
2023-08-15T04:22:25.570Z,99225.09
2023-08-15T04:26:27.132Z,99225.03
2023-08-15T04:30:29.570Z,99229.16
2023-08-15T04:34:31.264Z,99229.19
2023-08-15T04:38:34.176Z,99233.91
2023-08-15T04:42:35.714Z,99240.50
2023-08-15T04:46:37.386Z,99237.53
2023-08-15T04:50:38.946Z,99238.47
2023-08-15T04:54:41.837Z,99238.88
2023-08-15T04:58:43.377Z,99241.13
2023-08-15T05:02:45.007Z,99257.28
2023-08-15T05:06:46.566Z,99248.72
2023-08-15T05:10:49.536Z,99236.13
2023-08-15T05:14:51.117Z,99240.63
2023-08-15T05:18:52.660Z,99235.19
2023-08-15T05:22:54.428Z,99239.50
2023-08-15T05:26:57.348Z,99241.03
2023-08-15T05:30:59.020Z,99238.63
2023-08-15T05:35:00.583Z,99238.34
2023-08-15T05:39:02.121Z,99244.19
2023-08-15T05:43:05.084Z,99245.97
2023-08-15T05:47:06.703Z,99253.25
2023-08-15T05:51:08.317Z,99256.66
2023-08-15T05:55:09.852Z,99260.47
2023-08-15T05:59:12.748Z,99257.56
2023-08-15T06:03:14.397Z,99246.81
2023-08-15T06:07:16.026Z,99255.41
2023-08-15T06:11:17.568Z,99258.88
2023-08-15T06:15:20.481Z,99259.09
2023-08-15T06:19:22.020Z,99254.34
2023-08-15T06:23:23.644Z,99261.25
2023-08-15T06:27:25.205Z,99255.84
2023-08-15T06:31:28.539Z,99246.50
2023-08-15T06:35:30.125Z,99247.00
2023-08-15T06:39:31.674Z,99254.84
2023-08-15T06:43:33.342Z,99249.22
2023-08-15T06:47:36.280Z,99246.44
2023-08-15T06:51:37.863Z,99258.00
2023-08-15T06:55:39.409Z,99257.97
2023-08-15T06:59:40.978Z,99256.09
2023-08-15T07:03:44.067Z,99257.09
2023-08-15T07:07:45.686Z,99254.38
2023-08-15T07:11:47.392Z,99258.91
2023-08-15T07:15:54.130Z,99257.66
2023-08-15T07:19:57.136Z,99259.47
2023-08-15T07:23:58.731Z,99252.13
2023-08-15T07:28:00.303Z,99252.44
2023-08-15T07:32:06.695Z,99253.88
2023-08-15T07:36:10.114Z,99261.41
2023-08-15T07:40:20.000Z,99264.22
2023-08-15T07:44:21.541Z,99268.28
2023-08-15T07:52:26.650Z,99269.25
2023-08-15T07:56:28.523Z,99276.63
2023-08-15T08:00:30.912Z,99281.53
2023-08-15T08:04:32.486Z,99283.66
2023-08-15T08:08:37.944Z,99294.88
2023-08-15T08:12:39.778Z,99299.03
2023-08-15T08:16:41.399Z,99283.16
2023-08-15T08:20:42.957Z,99276.22
2023-08-15T08:24:46.028Z,99283.25
2023-08-15T08:28:47.594Z,99283.44
2023-08-15T08:32:49.753Z,99293.31
2023-08-15T08:36:51.361Z,99306.31
2023-08-15T08:40:56.174Z,99312.53
2023-08-15T08:49:01.792Z,99306.41
2023-08-15T08:53:03.601Z,99303.25
2023-08-15T08:57:07.476Z,99310.72
2023-08-15T09:01:10.828Z,99307.53
2023-08-15T09:05:12.843Z,99312.56
2023-08-15T09:09:14.478Z,99303.09
2023-08-15T09:13:23.605Z,99304.13
2023-08-15T09:17:25.321Z,99293.50
2023-08-15T09:21:27.855Z,99284.09
2023-08-15T09:25:29.698Z,99288.69
2023-08-15T09:29:34.724Z,99275.22
2023-08-15T09:33:36.632Z,99267.06
2023-08-15T09:37:41.734Z,99264.09
2023-08-15T09:41:43.669Z,99262.38
2023-08-15T09:45:47.574Z,99261.41
2023-08-15T09:49:52.098Z,99278.59
2023-08-15T09:53:54.659Z,99281.41
2023-08-15T09:57:56.275Z,99286.31
2023-08-15T10:02:01.553Z,99272.22
2023-08-15T10:06:04.501Z,99273.50
2023-08-15T10:10:07.326Z,99267.06
2023-08-15T10:14:10.533Z,99263.91
2023-08-15T10:18:14.258Z,99262.75
2023-08-15T10:22:18.872Z,99262.97
2023-08-15T10:26:20.844Z,99260.28
2023-08-15T10:30:29.582Z,99260.47
2023-08-15T10:34:34.819Z,99266.31
2023-08-15T10:38:40.621Z,99262.56
2023-08-15T10:43:07.987Z,99260.88
2023-08-15T10:47:23.907Z,99258.03
2023-08-15T10:51:28.393Z,99264.13
2023-08-15T10:55:30.932Z,99261.22
2023-08-15T10:59:32.833Z,99256.59
2023-08-15T11:03:35.539Z,99253.63
2023-08-15T11:07:38.638Z,99253.94
2023-08-15T11:11:40.584Z,99253.19
2023-08-15T11:15:42.709Z,99250.72
2023-08-15T11:19:44.808Z,99252.72
2023-08-15T11:23:50.226Z,99251.13
2023-08-15T11:27:52.224Z,99254.75
2023-08-15T11:31:53.947Z,99252.94
2023-08-15T11:35:55.868Z,99245.22
2023-08-15T11:39:58.823Z,99245.13
2023-08-15T11:44:01.903Z,99245.25
2023-08-15T11:48:05.330Z,99237.50
2023-08-15T11:52:07.005Z,99242.47
2023-08-15T11:56:10.006Z,99241.28
2023-08-15T12:00:12.601Z,99241.06
2023-08-15T12:04:14.595Z,99234.88
2023-08-15T12:08:16.974Z,99236.66
2023-08-15T12:12:21.641Z,99230.44
2023-08-15T12:16:23.562Z,99234.44
2023-08-15T12:20:25.104Z,99233.78
2023-08-15T12:24:26.658Z,99230.84
2023-08-15T12:28:29.657Z,99229.41
2023-08-15T12:32:31.574Z,99222.72
2023-08-15T12:36:33.141Z,99240.75
2023-08-15T12:40:34.765Z,99231.63
2023-08-15T12:44:37.664Z,99237.97
2023-08-15T12:48:39.360Z,99230.81
2023-08-15T12:52:40.918Z,99224.44
2023-08-15T12:56:42.450Z,99236.28
2023-08-15T13:00:46.112Z,99231.78
2023-08-15T13:04:47.693Z,99224.84
2023-08-15T13:08:49.254Z,99232.03
2023-08-15T13:12:50.805Z,99212.56
2023-08-15T13:16:54.746Z,99217.66
2023-08-15T13:20:56.570Z,99229.59
2023-08-15T13:24:58.142Z,99213.94
2023-08-15T13:28:59.710Z,99225.75
2023-08-15T13:33:02.659Z,99229.44
2023-08-15T13:37:04.361Z,99223.31
2023-08-15T13:41:06.174Z,99220.47
2023-08-15T13:45:09.458Z,99208.13
2023-08-15T13:49:12.864Z,99202.31
2023-08-15T13:53:14.410Z,99195.81
2023-08-15T13:57:16.002Z,99194.75
2023-08-15T14:01:17.790Z,99184.22
2023-08-15T14:05:21.014Z,99178.88
2023-08-15T14:09:22.600Z,99186.06
2023-08-15T14:13:24.308Z,99191.91
2023-08-15T14:17:25.855Z,99189.31
2023-08-15T14:21:28.751Z,99197.25
2023-08-15T14:25:30.457Z,99206.19
2023-08-15T14:29:32.021Z,99208.28
2023-08-15T14:33:33.708Z,99204.16
2023-08-15T14:37:36.646Z,99202.50
2023-08-15T14:41:38.193Z,99194.69
2023-08-15T14:45:39.757Z,99189.34
2023-08-15T14:49:41.316Z,99188.41
2023-08-15T14:53:44.292Z,99186.41
2023-08-15T14:57:45.866Z,99187.22
2023-08-15T15:01:47.502Z,99189.22
2023-08-15T15:05:49.108Z,99203.25
2023-08-15T15:09:52.205Z,99201.31
2023-08-15T15:13:53.778Z,99201.88
2023-08-15T15:17:55.363Z,99214.41
2023-08-15T15:21:56.987Z,99227.91
2023-08-15T15:26:00.233Z,99226.75
2023-08-15T15:30:01.927Z,99219.41
2023-08-15T15:34:03.784Z,99224.66
2023-08-15T15:38:05.372Z,99248.31
2023-08-15T15:42:08.507Z,99260.97
2023-08-15T15:46:10.189Z,99272.22
2023-08-15T15:50:11.928Z,99284.41
2023-08-15T15:54:13.486Z,99274.06
2023-08-15T15:58:16.365Z,99276.38
2023-08-15T16:02:17.938Z,99280.97
2023-08-15T16:06:19.496Z,99293.19
2023-08-15T16:10:21.121Z,99295.09
2023-08-15T16:14:24.057Z,99306.09
2023-08-15T16:18:25.877Z,99315.50
2023-08-15T16:22:27.897Z,99326.00
2023-08-15T16:26:29.444Z,99344.59
2023-08-15T16:30:32.416Z,99350.34
2023-08-15T16:34:34.398Z,99363.53
2023-08-15T16:38:36.040Z,99364.97
2023-08-15T16:42:37.604Z,99366.00
2023-08-15T16:46:40.544Z,99367.41
2023-08-15T16:50:42.248Z,99380.47
2023-08-15T16:54:43.884Z,99380.97
2023-08-15T16:58:45.466Z,99382.38
2023-08-15T17:02:48.601Z,99380.94
2023-08-15T17:06:50.420Z,99371.56
2023-08-15T17:10:51.992Z,99373.72
2023-08-15T17:14:53.509Z,99368.44
2023-08-15T17:18:56.400Z,99361.69
2023-08-15T17:22:58.056Z,99351.38
2023-08-15T17:26:59.937Z,99341.28
2023-08-15T17:31:01.506Z,99341.28
2023-08-15T17:35:04.990Z,99343.44
2023-08-15T17:39:06.535Z,99341.75
2023-08-15T17:43:08.190Z,99332.94
2023-08-15T17:47:10.049Z,99336.78
2023-08-15T17:51:13.065Z,99319.75
2023-08-15T17:55:14.801Z,99311.97
2023-08-15T17:59:16.372Z,99304.63
2023-08-15T18:03:18.025Z,99294.28
2023-08-15T18:07:21.015Z,99304.88
2023-08-15T18:11:22.644Z,99300.00
2023-08-15T18:15:24.340Z,99306.25
2023-08-15T18:19:25.892Z,99331.75
2023-08-15T18:23:28.954Z,99328.41
2023-08-15T18:27:30.528Z,99351.09
2023-08-15T18:31:32.239Z,99345.53
2023-08-15T18:35:33.854Z,99334.34
2023-08-15T18:39:36.843Z,99327.16
2023-08-15T18:43:38.376Z,99331.16
2023-08-15T18:47:40.046Z,99321.97
2023-08-15T18:51:41.673Z,99342.81
2023-08-15T18:55:44.953Z,99352.19
2023-08-15T18:59:46.563Z,99355.78
2023-08-15T19:03:48.198Z,99367.97
2023-08-15T19:07:49.828Z,99378.63
2023-08-15T19:11:52.751Z,99382.75
2023-08-15T19:15:54.300Z,99386.19
2023-08-15T19:19:56.527Z,99393.59
2023-08-15T19:23:58.097Z,99392.09
2023-08-15T19:28:01.143Z,99394.56
2023-08-15T19:32:02.739Z,99405.56
2023-08-15T19:36:04.771Z,99412.31
2023-08-15T19:40:07.910Z,99410.47
2023-08-15T19:44:11.175Z,99403.75
2023-08-15T19:48:12.863Z,99414.09
2023-08-15T19:52:14.461Z,99416.56
2023-08-15T19:56:16.289Z,99399.81
2023-08-15T20:00:19.348Z,99401.28
2023-08-15T20:04:21.022Z,99401.13
2023-08-15T20:08:22.715Z,99405.34
2023-08-15T20:12:24.622Z,99408.13
2023-08-15T20:16:27.809Z,99395.34
2023-08-15T20:20:29.416Z,99398.13
2023-08-15T20:24:31.008Z,99404.50
2023-08-15T20:28:32.613Z,99398.41
2023-08-15T20:32:35.577Z,99400.41
2023-08-15T20:36:37.999Z,99389.25
2023-08-15T20:40:39.592Z,99385.97
2023-08-15T20:44:41.189Z,99385.50
2023-08-15T20:48:44.074Z,99389.28
2023-08-15T20:52:45.618Z,99393.50
2023-08-15T20:56:47.251Z,99395.47
2023-08-15T21:00:48.866Z,99393.50
2023-08-15T21:04:51.822Z,99407.56
2023-08-15T21:08:53.366Z,99416.13
2023-08-15T21:12:54.908Z,99410.34
2023-08-15T21:16:56.541Z,99413.34
2023-08-15T21:20:59.440Z,99425.97
2023-08-15T21:25:01.016Z,99422.97
2023-08-15T21:29:02.753Z,99428.72
2023-08-15T21:33:04.734Z,99445.59
2023-08-15T21:37:08.183Z,99458.72
2023-08-15T21:41:11.953Z,99462.31
2023-08-15T21:45:13.532Z,99452.44
2023-08-15T21:49:15.099Z,99461.94
2023-08-15T21:53:18.090Z,99464.72
2023-08-15T21:57:19.849Z,99468.97
2023-08-15T22:01:21.596Z,99468.97
2023-08-15T22:05:23.640Z,99467.16
2023-08-15T22:09:26.550Z,99473.34
2023-08-15T22:13:28.134Z,99477.69
2023-08-15T22:17:43.150Z,99482.97
2023-08-15T22:21:47.487Z,99479.81
2023-08-15T22:25:50.629Z,99485.75
2023-08-15T22:29:52.199Z,99504.97
2023-08-15T22:33:53.808Z,99502.38
2023-08-15T22:37:55.406Z,99511.88
2023-08-15T22:41:58.298Z,99522.28
2023-08-15T22:45:59.885Z,99516.53
2023-08-15T22:50:01.434Z,99528.56
2023-08-15T22:54:03.114Z,99525.28
2023-08-15T22:58:06.169Z,99530.59
2023-08-15T23:02:07.710Z,99529.28
2023-08-15T23:06:09.285Z,99521.34
2023-08-15T23:10:11.083Z,99521.50
2023-08-15T23:14:14.035Z,99533.25
2023-08-15T23:18:15.589Z,99532.84
2023-08-15T23:22:17.172Z,99521.84
2023-08-15T23:26:18.686Z,99525.25
2023-08-15T23:30:21.656Z,99529.91
2023-08-15T23:34:23.227Z,99524.03
2023-08-15T23:38:24.794Z,99523.84
2023-08-15T23:42:26.337Z,99526.13
2023-08-15T23:46:29.319Z,99521.47
2023-08-15T23:50:30.945Z,99517.97
2023-08-15T23:54:32.559Z,99527.44
2023-08-15T23:58:34.122Z,99520.56
